createdAt,value
2022-11-16T00:01:16.177Z,12.20
2022-11-16T00:03:43.565Z,12.20
2022-11-16T00:06:10.870Z,12.20
2022-11-16T00:08:41.423Z,12.10
2022-11-16T00:11:10.021Z,12.20
2022-11-16T00:13:37.112Z,12.20
2022-11-16T00:16:04.393Z,12.20
2022-11-16T00:18:32.711Z,12.10
2022-11-16T00:21:00.010Z,12.20
2022-11-16T00:23:27.034Z,12.20
2022-11-16T00:25:53.886Z,12.20
2022-11-16T00:28:20.855Z,12.20
2022-11-16T00:30:48.070Z,12.20
2022-11-16T00:33:16.749Z,12.20
2022-11-16T00:35:43.654Z,12.20
2022-11-16T00:38:10.536Z,12.20
2022-11-16T00:40:37.461Z,12.20
2022-11-16T00:43:04.274Z,12.20
2022-11-16T00:45:31.215Z,12.20
2022-11-16T00:48:00.645Z,12.20
2022-11-16T00:50:27.783Z,12.20
2022-11-16T00:52:54.873Z,12.10
2022-11-16T00:55:21.725Z,12.00
2022-11-16T00:57:48.688Z,12.00
2022-11-16T01:00:15.827Z,12.00
2022-11-16T01:02:42.768Z,12.00
2022-11-16T01:05:12.829Z,12.00
2022-11-16T01:07:39.916Z,12.00
2022-11-16T01:10:09.070Z,12.00
2022-11-16T01:12:35.991Z,12.10
2022-11-16T01:15:02.879Z,12.00
2022-11-16T01:17:29.828Z,12.00
2022-11-16T01:19:56.720Z,12.00
2022-11-16T01:22:23.626Z,12.00
2022-11-16T01:24:50.485Z,12.00
2022-11-16T01:27:20.319Z,11.90
2022-11-16T01:29:47.489Z,11.90
2022-11-16T01:32:14.513Z,11.80
2022-11-16T01:34:41.399Z,11.80
2022-11-16T01:37:08.604Z,11.80
2022-11-16T01:39:35.499Z,11.80
2022-11-16T01:42:02.467Z,11.80
2022-11-16T01:44:32.072Z,11.70
2022-11-16T01:46:59.485Z,11.70
2022-11-16T01:49:27.880Z,11.80
2022-11-16T01:52:05.513Z,11.90
2022-11-16T01:54:35.823Z,11.90
2022-11-16T01:57:03.259Z,12.00
2022-11-16T01:59:30.292Z,12.00
2022-11-16T02:01:58.756Z,11.90
2022-11-16T02:04:25.664Z,11.90
2022-11-16T02:07:02.026Z,11.90
2022-11-16T02:09:53.989Z,11.80
2022-11-16T02:12:41.915Z,11.80
2022-11-16T02:15:08.767Z,11.70
2022-11-16T02:17:35.616Z,11.80
2022-11-16T02:20:08.593Z,11.80
2022-11-16T02:22:53.955Z,11.90
2022-11-16T02:25:30.013Z,11.90
2022-11-16T02:28:15.670Z,11.80
2022-11-16T02:30:43.793Z,11.80
2022-11-16T02:33:12.283Z,11.80
2022-11-16T02:35:49.319Z,11.80
2022-11-16T02:38:20.398Z,11.90
2022-11-16T02:40:48.157Z,12.00
2022-11-16T02:43:17.845Z,12.00
2022-11-16T02:45:46.045Z,12.00
2022-11-16T02:48:20.533Z,12.00
2022-11-16T02:50:48.107Z,12.00
2022-11-16T02:53:15.214Z,12.00
2022-11-16T02:55:42.545Z,12.00
2022-11-16T02:58:10.076Z,12.00
2022-11-16T03:00:46.938Z,11.90
2022-11-16T03:03:20.376Z,12.00
2022-11-16T03:05:51.606Z,11.90
2022-11-16T03:08:29.818Z,11.90
2022-11-16T03:11:19.502Z,11.80
2022-11-16T03:13:46.747Z,11.80
2022-11-16T03:16:15.013Z,11.80
2022-11-16T03:18:41.983Z,11.80
2022-11-16T03:21:31.921Z,11.90
2022-11-16T03:23:58.884Z,11.90
2022-11-16T03:26:26.718Z,11.80
2022-11-16T03:29:13.274Z,11.80
2022-11-16T03:31:43.251Z,11.70
2022-11-16T03:34:11.026Z,11.70
2022-11-16T03:36:39.493Z,11.70
2022-11-16T03:39:10.902Z,11.70
2022-11-16T03:41:37.890Z,11.80
2022-11-16T03:44:05.152Z,11.90
2022-11-16T03:46:32.039Z,11.90
2022-11-16T03:48:59.343Z,12.00
2022-11-16T03:51:26.246Z,11.90
2022-11-16T03:53:53.134Z,11.90
2022-11-16T03:56:19.980Z,12.00
2022-11-16T03:58:46.927Z,12.00
2022-11-16T04:01:13.805Z,12.00
2022-11-16T04:03:40.671Z,12.00
2022-11-16T04:06:27.254Z,12.00
2022-11-16T04:09:32.418Z,12.10
2022-11-16T04:12:17.529Z,12.00
2022-11-16T04:15:02.616Z,12.10
2022-11-16T04:17:47.794Z,12.00
2022-11-16T04:20:33.980Z,12.00
2022-11-16T04:23:23.298Z,12.10
2022-11-16T04:25:50.114Z,12.00
2022-11-16T04:28:17.738Z,12.10
2022-11-16T04:31:04.165Z,12.10
2022-11-16T04:33:50.007Z,12.20
2022-11-16T04:36:35.622Z,12.20
2022-11-16T04:39:02.468Z,12.20
2022-11-16T04:41:48.768Z,12.20
2022-11-16T04:44:15.660Z,12.20
2022-11-16T04:47:01.513Z,12.20
2022-11-16T04:49:28.436Z,12.20
2022-11-16T04:51:55.401Z,12.20
2022-11-16T04:54:22.249Z,12.20
2022-11-16T04:56:49.081Z,12.20
2022-11-16T04:59:15.960Z,12.20
2022-11-16T05:02:01.510Z,12.20
2022-11-16T05:04:28.334Z,12.10
2022-11-16T05:06:55.233Z,12.00
2022-11-16T05:09:22.240Z,12.00
2022-11-16T05:11:49.284Z,12.10
2022-11-16T05:14:16.119Z,12.20
2022-11-16T05:16:42.966Z,12.20
2022-11-16T05:19:30.125Z,12.20
2022-11-16T05:21:57.015Z,12.20
2022-11-16T05:24:36.062Z,12.10
2022-11-16T05:27:10.173Z,12.00
2022-11-16T05:29:37.228Z,12.00
2022-11-16T05:32:04.431Z,11.90
2022-11-16T05:34:31.358Z,12.00
2022-11-16T05:36:58.627Z,12.00
2022-11-16T05:39:25.759Z,12.00
2022-11-16T05:41:52.729Z,12.10
2022-11-16T05:44:19.836Z,12.20
2022-11-16T05:46:46.982Z,12.30
2022-11-16T05:49:14.747Z,12.30
2022-11-16T05:51:42.103Z,12.30
2022-11-16T05:54:09.100Z,12.30
2022-11-16T05:56:36.097Z,12.30
2022-11-16T05:59:03.048Z,12.40
2022-11-16T06:01:29.964Z,12.40
2022-11-16T06:03:59.103Z,12.50
2022-11-16T06:06:26.131Z,12.50
2022-11-16T06:08:54.148Z,12.60
2022-11-16T06:11:21.813Z,12.60
2022-11-16T06:13:48.909Z,12.60
2022-11-16T06:16:15.867Z,12.70
2022-11-16T06:18:43.620Z,12.70
2022-11-16T06:21:11.057Z,12.70
2022-11-16T06:23:38.028Z,12.70
2022-11-16T06:26:07.464Z,12.70
2022-11-16T06:28:35.209Z,12.70
2022-11-16T06:31:02.486Z,12.80
2022-11-16T06:33:33.340Z,12.80
2022-11-16T06:36:03.165Z,12.90
2022-11-16T06:38:30.176Z,12.90
2022-11-16T06:40:57.961Z,12.90
2022-11-16T06:43:25.482Z,12.90
2022-11-16T06:45:53.069Z,12.90
2022-11-16T06:48:20.115Z,12.90
2022-11-16T06:50:50.428Z,12.90
2022-11-16T06:53:18.064Z,12.90
2022-11-16T06:55:45.024Z,13.00
2022-11-16T06:58:11.954Z,13.00
2022-11-16T07:00:38.943Z,13.00
2022-11-16T07:03:06.057Z,13.10
2022-11-16T07:05:33.861Z,13.10
2022-11-16T07:08:01.037Z,13.10
2022-11-16T07:10:27.967Z,13.10
2022-11-16T07:12:57.726Z,13.10
2022-11-16T07:15:24.949Z,13.00
2022-11-16T07:17:51.845Z,13.00
2022-11-16T07:20:19.360Z,13.00
2022-11-16T07:22:46.318Z,13.00
2022-11-16T07:25:13.513Z,13.10
2022-11-16T07:27:40.464Z,13.20
2022-11-16T07:30:08.006Z,13.20
2022-11-16T07:32:35.061Z,13.30
2022-11-16T07:35:02.183Z,13.30
2022-11-16T07:37:29.187Z,13.30
2022-11-16T07:39:56.231Z,13.30
2022-11-16T07:42:23.159Z,13.40
2022-11-16T07:44:50.017Z,13.40
2022-11-16T07:47:16.858Z,13.40
2022-11-16T07:49:43.872Z,13.50
2022-11-16T07:52:10.757Z,13.50
2022-11-16T07:54:37.790Z,13.60
2022-11-16T07:57:04.885Z,13.60
2022-11-16T07:59:32.002Z,13.70
2022-11-16T08:01:59.570Z,13.70
2022-11-16T08:04:26.529Z,13.90
2022-11-16T08:06:53.585Z,13.90
2022-11-16T08:09:22.486Z,14.00
2022-11-16T08:11:51.200Z,14.00
2022-11-16T08:14:19.485Z,14.00
2022-11-16T08:16:46.459Z,14.00
2022-11-16T08:19:13.488Z,14.10
2022-11-16T08:21:40.326Z,14.20
2022-11-16T08:24:07.352Z,14.30
2022-11-16T08:26:34.243Z,14.30
2022-11-16T08:29:01.138Z,14.40
2022-11-16T08:31:30.148Z,14.50
2022-11-16T08:33:59.327Z,14.50
2022-11-16T08:36:26.294Z,14.60
2022-11-16T08:38:53.439Z,14.70
2022-11-16T08:41:20.617Z,14.70
2022-11-16T08:43:47.791Z,14.90
2022-11-16T08:46:14.700Z,15.10
2022-11-16T08:48:41.652Z,15.20
2022-11-16T08:51:18.606Z,15.40
2022-11-16T08:53:48.508Z,15.50
2022-11-16T08:56:15.933Z,15.70
2022-11-16T08:58:43.935Z,15.90
2022-11-16T09:01:14.668Z,16.10
2022-11-16T09:03:41.744Z,16.30
2022-11-16T09:06:08.822Z,16.60
2022-11-16T09:08:36.471Z,16.80
2022-11-16T09:11:04.510Z,17.00
2022-11-16T09:13:31.558Z,17.10
2022-11-16T09:15:58.909Z,17.20
2022-11-16T09:18:25.905Z,17.20
2022-11-16T09:20:52.889Z,17.20
2022-11-16T09:23:24.885Z,17.10
2022-11-16T09:25:52.316Z,16.90
2022-11-16T09:28:19.856Z,16.90
2022-11-16T09:30:46.938Z,16.80
2022-11-16T09:33:13.875Z,16.70
2022-11-16T09:35:40.765Z,16.70
2022-11-16T09:38:09.976Z,16.60
2022-11-16T09:40:37.580Z,16.60
2022-11-16T09:43:04.509Z,16.60
2022-11-16T09:45:47.633Z,16.60
2022-11-16T09:48:14.906Z,16.70
2022-11-16T09:50:46.640Z,16.70
2022-11-16T09:53:22.048Z,16.90
2022-11-16T09:55:49.535Z,16.90
2022-11-16T09:58:18.288Z,17.10
2022-11-16T10:00:47.730Z,17.20
2022-11-16T10:03:15.057Z,17.40
2022-11-16T10:05:44.922Z,17.60
2022-11-16T10:08:18.849Z,17.80
2022-11-16T10:11:01.946Z,18.00
2022-11-16T10:13:40.095Z,18.10
2022-11-16T10:16:08.918Z,18.30
2022-11-16T10:19:05.099Z,18.40
2022-11-16T10:21:37.441Z,18.50
2022-11-16T10:24:23.977Z,18.50
2022-11-16T10:27:04.233Z,18.50
2022-11-16T10:29:31.708Z,18.60
2022-11-16T10:32:19.266Z,18.70
2022-11-16T10:34:49.974Z,18.70
2022-11-16T10:37:17.194Z,18.70
2022-11-16T10:39:44.295Z,18.80
2022-11-16T10:42:19.242Z,18.90
2022-11-16T10:44:49.040Z,18.90
2022-11-16T10:47:20.459Z,18.80
2022-11-16T10:49:52.605Z,18.70
2022-11-16T10:52:19.793Z,18.70
2022-11-16T10:54:46.790Z,18.70
2022-11-16T10:57:14.858Z,18.70
2022-11-16T10:59:53.540Z,18.60
2022-11-16T11:02:23.824Z,18.50
2022-11-16T11:05:03.874Z,18.50
2022-11-16T11:07:40.609Z,18.50
2022-11-16T11:10:28.196Z,18.60
2022-11-16T11:13:10.418Z,18.50
2022-11-16T11:15:40.745Z,18.60
2022-11-16T11:18:13.930Z,18.50
2022-11-16T11:20:44.729Z,18.50
2022-11-16T11:23:54.909Z,18.50
2022-11-16T11:26:36.641Z,18.50
2022-11-16T11:29:44.749Z,18.50
2022-11-16T11:32:18.145Z,18.50
2022-11-16T11:34:51.332Z,18.60
2022-11-16T11:37:53.561Z,18.60
2022-11-16T11:40:20.695Z,18.60
2022-11-16T11:42:56.025Z,18.60
2022-11-16T11:45:41.379Z,18.70
2022-11-16T11:48:48.046Z,18.70
2022-11-16T11:51:33.905Z,18.70
2022-11-16T11:54:02.338Z,18.70
2022-11-16T11:56:35.100Z,18.70
2022-11-16T11:59:05.368Z,18.80
2022-11-16T12:01:55.335Z,18.90
2022-11-16T12:04:38.108Z,18.90
2022-11-16T12:07:07.796Z,18.90
2022-11-16T12:09:37.087Z,19.00
2022-11-16T12:12:14.814Z,19.00
2022-11-16T12:15:00.731Z,19.00
2022-11-16T12:17:39.711Z,19.00
2022-11-16T12:20:15.584Z,19.00
2022-11-16T12:22:47.970Z,19.00
2022-11-16T12:25:14.851Z,19.00
2022-11-16T12:28:04.197Z,19.00
2022-11-16T12:30:32.512Z,18.90
2022-11-16T12:33:02.458Z,18.90
2022-11-16T12:35:32.448Z,18.90
2022-11-16T12:38:02.330Z,18.80
2022-11-16T12:40:32.276Z,18.70
2022-11-16T12:43:21.150Z,18.70
2022-11-16T12:45:53.502Z,18.50
2022-11-16T12:48:26.134Z,18.50
2022-11-16T12:51:11.371Z,18.50
2022-11-16T12:54:02.655Z,18.40
2022-11-16T12:56:46.011Z,18.30
2022-11-16T12:59:36.042Z,18.10
2022-11-16T13:02:06.296Z,18.00
2022-11-16T13:04:41.343Z,17.90
2022-11-16T13:07:11.193Z,17.80
2022-11-16T13:09:41.734Z,17.90
2022-11-16T13:12:14.413Z,17.90
2022-11-16T13:14:42.453Z,17.90
2022-11-16T13:17:10.958Z,17.80
2022-11-16T13:19:43.099Z,17.80
2022-11-16T13:22:15.245Z,17.80
2022-11-16T13:25:10.888Z,17.70
2022-11-16T13:27:41.813Z,17.70
2022-11-16T13:30:24.861Z,17.70
2022-11-16T13:33:13.482Z,17.70
2022-11-16T13:35:41.186Z,17.80
2022-11-16T13:38:12.541Z,17.80
2022-11-16T13:40:39.592Z,17.90
2022-11-16T13:43:09.861Z,17.90
2022-11-16T13:45:59.166Z,18.00
2022-11-16T13:48:28.328Z,18.00
2022-11-16T13:50:56.021Z,18.10
2022-11-16T13:56:25.578Z,18.10
2022-11-16T13:58:57.470Z,18.10
2022-11-16T14:01:31.293Z,18.10
2022-11-16T14:04:21.594Z,18.10
2022-11-16T14:07:26.919Z,18.10
2022-11-16T14:09:53.816Z,18.20
2022-11-16T14:12:47.001Z,18.20
2022-11-16T14:15:26.677Z,18.20
2022-11-16T14:17:54.841Z,18.20
2022-11-16T14:20:30.499Z,18.20
2022-11-16T14:23:16.518Z,18.20
2022-11-16T14:25:53.502Z,18.20
2022-11-16T14:28:30.341Z,18.20
2022-11-16T14:31:07.659Z,18.20
2022-11-16T14:33:36.946Z,18.20
2022-11-16T14:36:06.316Z,18.10
2022-11-16T14:38:33.899Z,18.10
2022-11-16T14:41:04.775Z,17.90
2022-11-16T14:43:45.839Z,17.70
2022-11-16T14:46:17.581Z,17.70
2022-11-16T14:48:45.243Z,17.60
2022-11-16T14:51:47.419Z,17.60
2022-11-16T14:54:37.973Z,17.40
2022-11-16T14:57:09.090Z,17.40
2022-11-16T14:59:35.985Z,17.40
2022-11-16T15:02:05.358Z,17.40
2022-11-16T15:04:32.304Z,17.40
2022-11-16T15:07:04.096Z,17.40
2022-11-16T15:09:31.253Z,17.40
2022-11-16T15:12:17.047Z,17.30
2022-11-16T15:14:48.067Z,17.20
2022-11-16T15:17:18.993Z,17.20
2022-11-16T15:19:55.839Z,17.20
2022-11-16T15:22:23.475Z,17.20
2022-11-16T15:24:54.004Z,17.30
2022-11-16T15:27:42.253Z,17.30
2022-11-16T15:30:17.115Z,17.30
2022-11-16T15:32:44.326Z,17.30
2022-11-16T15:35:21.318Z,17.30
2022-11-16T15:37:48.323Z,17.30
2022-11-16T15:40:15.167Z,17.20
2022-11-16T15:42:42.091Z,17.30
2022-11-16T15:45:15.504Z,17.30
2022-11-16T15:47:42.627Z,17.30
2022-11-16T15:50:13.804Z,17.20
2022-11-16T15:52:41.078Z,17.30
2022-11-16T15:55:19.912Z,17.20
2022-11-16T15:57:48.142Z,17.10
2022-11-16T16:00:24.648Z,17.10
2022-11-16T16:02:51.791Z,17.10
2022-11-16T16:05:24.000Z,17.00
2022-11-16T16:07:51.184Z,17.00
2022-11-16T16:10:18.078Z,17.00
2022-11-16T16:12:48.280Z,17.00
2022-11-16T16:15:33.903Z,16.90
2022-11-16T16:18:00.916Z,17.00
2022-11-16T16:20:28.729Z,17.00
2022-11-16T16:23:05.742Z,17.00
2022-11-16T16:25:33.908Z,16.90
2022-11-16T16:28:03.516Z,17.00
2022-11-16T16:30:30.727Z,16.90
2022-11-16T16:32:57.683Z,16.90
2022-11-16T16:35:24.965Z,16.90
2022-11-16T16:37:54.549Z,16.80
2022-11-16T16:40:21.471Z,16.80
2022-11-16T16:42:48.636Z,16.80
2022-11-16T16:45:16.187Z,16.90
2022-11-16T16:47:43.368Z,16.90
2022-11-16T16:50:10.375Z,16.80
2022-11-16T16:52:37.371Z,16.80
2022-11-16T16:55:04.391Z,16.90
2022-11-16T16:57:31.212Z,16.80
2022-11-16T16:59:58.077Z,16.80
2022-11-16T17:02:26.945Z,16.80
2022-11-16T17:04:53.807Z,16.70
2022-11-16T17:07:21.963Z,16.70
2022-11-16T17:10:09.579Z,16.70
2022-11-16T17:12:36.968Z,16.70
2022-11-16T17:15:04.947Z,16.70
2022-11-16T17:17:31.754Z,16.70
2022-11-16T17:19:58.610Z,16.70
2022-11-16T17:22:25.559Z,16.70
2022-11-16T17:24:52.505Z,16.70
2022-11-16T17:27:19.347Z,16.80
2022-11-16T17:29:46.229Z,16.80
2022-11-16T17:32:17.757Z,16.80
2022-11-16T17:34:45.011Z,16.80
2022-11-16T17:37:12.088Z,16.90
2022-11-16T17:39:39.132Z,16.80
2022-11-16T17:42:06.052Z,16.80
2022-11-16T17:44:32.943Z,16.70
2022-11-16T17:47:06.096Z,16.80
2022-11-16T17:49:33.008Z,16.80
2022-11-16T17:52:00.018Z,16.80
2022-11-16T17:54:26.924Z,16.80
2022-11-16T17:56:54.135Z,16.80
2022-11-16T17:59:24.971Z,16.80
2022-11-16T18:01:55.004Z,16.80
2022-11-16T18:04:21.969Z,16.70
2022-11-16T18:06:49.067Z,16.70
2022-11-16T18:09:16.253Z,16.70
2022-11-16T18:11:43.119Z,16.60
2022-11-16T18:14:11.053Z,16.50
2022-11-16T18:16:41.168Z,16.60
2022-11-16T18:19:15.220Z,16.60
2022-11-16T18:21:44.747Z,16.60
2022-11-16T18:24:18.917Z,16.60
2022-11-16T18:26:45.855Z,16.60
2022-11-16T18:29:16.181Z,16.60
2022-11-16T18:31:53.552Z,16.70
2022-11-16T18:34:20.621Z,16.60
2022-11-16T18:36:49.132Z,16.70
2022-11-16T18:39:18.327Z,16.60
2022-11-16T18:41:50.169Z,16.60
2022-11-16T18:44:27.132Z,16.50
2022-11-16T18:46:53.998Z,16.50
2022-11-16T18:49:21.122Z,16.50
2022-11-16T18:51:48.218Z,16.50
2022-11-16T18:54:17.691Z,16.50
2022-11-16T18:56:44.888Z,16.50
2022-11-16T18:59:11.982Z,16.60
2022-11-16T19:01:39.103Z,16.60
2022-11-16T19:04:08.866Z,16.50
2022-11-16T19:06:44.289Z,16.50
2022-11-16T19:09:14.596Z,16.60
2022-11-16T19:11:41.766Z,16.50
2022-11-16T19:14:09.137Z,16.50
2022-11-16T19:16:36.237Z,16.50
2022-11-16T19:19:03.626Z,16.40
2022-11-16T19:21:33.296Z,16.40
2022-11-16T19:24:00.300Z,16.30
2022-11-16T19:26:27.527Z,16.30
2022-11-16T19:28:54.779Z,16.30
2022-11-16T19:31:25.693Z,16.40
2022-11-16T19:33:56.309Z,16.40
2022-11-16T19:36:23.478Z,16.40
2022-11-16T19:38:50.754Z,16.20
2022-11-16T19:41:21.614Z,16.20
2022-11-16T19:43:49.424Z,16.30
2022-11-16T19:46:21.782Z,16.30
2022-11-16T19:48:49.617Z,16.30
2022-11-16T19:51:17.805Z,16.20
2022-11-16T19:53:44.974Z,16.20
2022-11-16T19:56:12.872Z,16.20
2022-11-16T19:58:40.013Z,16.10
2022-11-16T20:01:14.040Z,16.10
2022-11-16T20:03:42.177Z,16.10
2022-11-16T20:06:16.347Z,16.20
2022-11-16T20:08:43.670Z,16.10
2022-11-16T20:11:16.177Z,16.10
2022-11-16T20:13:43.372Z,16.10
2022-11-16T20:16:11.144Z,16.10
2022-11-16T20:18:38.808Z,16.00
2022-11-16T20:21:06.099Z,16.00
2022-11-16T20:23:39.160Z,16.00
2022-11-16T20:26:08.770Z,16.00
2022-11-16T20:28:36.457Z,16.00
2022-11-16T20:31:05.455Z,16.00
2022-11-16T20:33:36.975Z,16.00
2022-11-16T20:36:04.867Z,16.00
2022-11-16T20:38:32.558Z,16.00
2022-11-16T20:41:07.228Z,16.00
2022-11-16T20:43:34.482Z,16.10
2022-11-16T20:46:01.582Z,16.10
2022-11-16T20:48:28.689Z,16.10
2022-11-16T20:50:55.835Z,16.20
2022-11-16T20:53:22.962Z,16.20
2022-11-16T20:55:50.146Z,16.20
2022-11-16T20:58:22.397Z,16.20
2022-11-16T21:00:50.240Z,16.10
2022-11-16T21:03:17.312Z,16.20
2022-11-16T21:05:44.821Z,16.10
2022-11-16T21:08:12.097Z,16.20
2022-11-16T21:10:39.202Z,16.20
2022-11-16T21:13:24.782Z,16.20
2022-11-16T21:15:57.963Z,16.20
2022-11-16T21:18:30.374Z,15.90
2022-11-16T21:21:12.414Z,15.70
2022-11-16T21:23:40.226Z,15.60
2022-11-16T21:26:08.173Z,15.60
2022-11-16T21:28:35.611Z,15.70
2022-11-16T21:31:33.406Z,15.80
2022-11-16T21:34:03.237Z,15.80
2022-11-16T21:36:30.667Z,15.90
2022-11-16T21:38:58.234Z,15.90
2022-11-16T21:41:25.422Z,15.90
2022-11-16T21:43:52.377Z,15.90
2022-11-16T21:46:26.018Z,15.80
2022-11-16T21:48:54.412Z,15.60
2022-11-16T21:51:28.840Z,15.60
2022-11-16T21:53:55.753Z,15.50
2022-11-16T21:56:23.437Z,15.50
2022-11-16T21:58:51.990Z,15.60
2022-11-16T22:01:19.016Z,15.70
2022-11-16T22:03:45.926Z,15.80
2022-11-16T22:06:31.958Z,15.80
2022-11-16T22:08:58.900Z,15.90
2022-11-16T22:11:26.266Z,15.90
2022-11-16T22:13:53.209Z,15.90
2022-11-16T22:16:20.556Z,15.90
2022-11-16T22:18:47.730Z,15.90
2022-11-16T22:21:14.687Z,15.80
2022-11-16T22:23:44.510Z,15.90
2022-11-16T22:26:12.299Z,15.80
2022-11-16T22:28:44.920Z,15.80
2022-11-16T22:31:20.117Z,15.70
2022-11-16T22:33:47.005Z,15.70
2022-11-16T22:36:14.142Z,15.70
2022-11-16T22:38:41.343Z,15.70
2022-11-16T22:41:08.330Z,15.70
2022-11-16T22:43:37.664Z,15.60
2022-11-16T22:46:05.610Z,15.60
2022-11-16T22:48:35.371Z,15.50
2022-11-16T22:51:06.812Z,15.40
2022-11-16T22:53:34.592Z,15.30
2022-11-16T22:56:08.604Z,15.40
2022-11-16T22:58:39.245Z,15.40
2022-11-16T23:01:07.574Z,15.50
2022-11-16T23:03:35.191Z,15.60
2022-11-16T23:06:02.564Z,15.60
2022-11-16T23:08:29.595Z,15.70
2022-11-16T23:11:25.440Z,15.70
2022-11-16T23:14:11.651Z,15.70
2022-11-16T23:16:38.791Z,15.70
2022-11-16T23:19:28.571Z,15.70
2022-11-16T23:22:14.463Z,15.60
2022-11-16T23:25:02.416Z,15.70
2022-11-16T23:27:33.873Z,15.70
2022-11-16T23:30:01.762Z,15.60
2022-11-16T23:32:28.868Z,15.60
2022-11-16T23:34:55.865Z,15.70
2022-11-16T23:37:28.172Z,15.70
2022-11-16T23:39:55.021Z,15.70
2022-11-16T23:42:40.497Z,15.60
2022-11-16T23:45:07.663Z,15.60
2022-11-16T23:47:34.498Z,15.50
2022-11-16T23:50:01.363Z,15.40
2022-11-16T23:52:28.524Z,15.30
2022-11-16T23:54:57.439Z,15.30
2022-11-16T23:57:24.413Z,15.30
2022-11-16T23:59:51.264Z,15.30
